PWSweather.com
Personal Weather Stations
Station Observations
N3SME
Betz Creek, Wilmington Island, Savannah, GA 31410

Betz Creek, Wilmington IslandSavannah, GA 31410

Lat: 32.023021, Lon: -80.959452

Elevation: 15

Station Type: Ambient

Latest ConditionsUpdated 9:00:02 AM EDT Monday, Aug 31, 2015
Currently Today's Max Today's Min Today's Average
Temperature 75.1°F23.9°C 77.6°F25.3°C 73.8°F23.2°C 75.3°F24.1°C
Dew Point 75.2°F24.0°C 77.7°F25.4°C 73.9°F23.3°C 75.4°F24.1°C
Winds Calm Calm 3.6 mph NW5.8 kmh NW - 0.3 mph 0.5 kmh
Wind Gusts 5.1 mph8.2 kmh 31.5 mph50.7 kmh - -
Humidity 100% 100% 100% 100%
Pressure 30.02 in1016.6 mb 30.02 in1016.6 mb 29.96 in1014.6 mb -
Precipitation - 0.26 in6.6 mm - -
Hour Temp Dew Point Humidity Winds Wind Gusts Pressure Precip Precip Rate Daily Precip Total
09:00 AM 75.1°F23.9°C 75.2°F24.0°C 100% Calm Calm 5.1 mph8.2 kmh 30.02 in1016.6 mb 0.00 in0.0 mm 0.00 in0.0 mm 0.26 in6.6 mm
08:45 AM 74.4°F23.6°C 74.4°F23.6°C 100% Calm Calm -- 30.01 in1016.3 mb 0.00 in0.0 mm 0.00 in0.0 mm 0.26 in6.6 mm
08:30 AM 74.4°F23.6°C 74.4°F23.6°C 100% Calm Calm 5.1 mph8.2 kmh 30.00 in1015.9 mb 0.00 in0.0 mm 0.00 in0.0 mm 0.26 in6.6 mm
08:15 AM 74.6°F23.7°C 74.6°F23.7°C 100% Calm Calm -- 30.00 in1015.9 mb 0.00 in0.0 mm 0.00 in0.0 mm 0.26 in6.6 mm
08:00 AM 74.6°F23.7°C 74.6°F23.7°C 100% Calm Calm -- 30.00 in1015.9 mb 0.00 in0.0 mm 0.00 in0.0 mm 0.26 in6.6 mm
07:45 AM 74.0°F23.3°C 74.1°F23.4°C 100% Calm Calm 3.6 mph5.8 kmh 29.98 in1015.2 mb 0.00 in0.0 mm 0.00 in0.0 mm 0.26 in6.6 mm
07:30 AM 73.8°F23.2°C 73.9°F23.3°C 100% Calm Calm 3.6 mph5.8 kmh 29.98 in1015.2 mb 0.00 in0.0 mm 0.00 in0.0 mm 0.26 in6.6 mm
07:15 AM 73.8°F23.2°C 73.9°F23.3°C 100% Calm Calm 5.1 mph8.2 kmh 29.96 in1014.6 mb 0.00 in0.0 mm 0.00 in0.0 mm 0.26 in6.6 mm
07:00 AM 73.8°F23.2°C 73.9°F23.3°C 100% Calm Calm 3.6 mph5.8 kmh 29.96 in1014.6 mb 0.00 in0.0 mm 0.00 in0.0 mm 0.26 in6.6 mm
06:45 AM 73.8°F23.2°C 73.9°F23.3°C 100% Calm Calm 3.6 mph5.8 kmh 29.97 in1014.9 mb 0.00 in0.0 mm 0.00 in0.0 mm 0.26 in6.6 mm
06:30 AM 73.8°F23.2°C 73.9°F23.3°C 100% Calm Calm 8.7 mph14.0 kmh 29.97 in1014.9 mb 0.00 in0.0 mm 0.00 in0.0 mm 0.26 in6.6 mm
06:15 AM 74.0°F23.3°C 74.1°F23.4°C 100% Calm Calm 6.9 mph11.1 kmh 29.97 in1014.9 mb 0.00 in0.0 mm 0.00 in0.0 mm 0.26 in6.6 mm
06:00 AM 74.0°F23.3°C 74.1°F23.4°C 100% Calm Calm 8.7 mph14.0 kmh 29.97 in1014.9 mb 0.00 in0.0 mm 0.00 in0.0 mm 0.26 in6.6 mm
05:45 AM 74.0°F23.3°C 74.1°F23.4°C 100% Calm Calm 6.9 mph11.1 kmh 29.97 in1014.9 mb 0.00 in0.0 mm 0.00 in0.0 mm 0.26 in6.6 mm
05:30 AM 74.4°F23.6°C 74.4°F23.6°C 100% Calm Calm 1.8 mph2.9 kmh 29.97 in1014.9 mb 0.00 in0.0 mm 0.00 in0.0 mm 0.26 in6.6 mm
05:15 AM 74.4°F23.6°C 74.4°F23.6°C 100% Calm Calm 1.8 mph2.9 kmh 29.97 in1014.9 mb 0.00 in0.0 mm 0.00 in0.0 mm 0.26 in6.6 mm
05:00 AM 74.6°F23.7°C 74.6°F23.7°C 100% Calm Calm -- 29.97 in1014.9 mb 0.00 in0.0 mm 0.00 in0.0 mm 0.26 in6.6 mm
04:45 AM 74.6°F23.7°C 74.6°F23.7°C 100% Calm Calm 5.1 mph8.2 kmh 29.98 in1015.2 mb 0.07 in1.8 mm 0.00 in0.0 mm 0.26 in6.6 mm
04:30 AM 74.7°F23.7°C 74.8°F23.8°C 100% 3.6 mph NW5.8 kmh NW 6.9 mph11.1 kmh 29.97 in1014.9 mb 0.26 in6.6 mm 0.00 in0.0 mm 0.26 in6.6 mm
04:15 AM 74.7°F23.7°C 74.8°F23.8°C 100% Calm Calm 6.9 mph11.1 kmh 29.96 in1014.6 mb 0.26 in6.6 mm 0.00 in0.0 mm 0.26 in6.6 mm
04:00 AM 74.6°F23.7°C 74.6°F23.7°C 100% 1.8 mph SW2.9 kmh SW 24.6 mph39.6 kmh 29.98 in1015.2 mb 0.26 in6.6 mm 0.09 in2.3 mm 0.26 in6.6 mm
03:45 AM 77.6°F25.3°C 77.7°F25.4°C 100% 1.8 mph SW2.9 kmh SW 31.5 mph50.7 kmh 29.99 in1015.6 mb 0.19 in4.8 mm 0.76 in19.3 mm 0.19 in4.8 mm
03:30 AM 76.9°F24.9°C 77.0°F25.0°C 100% Calm Calm 5.1 mph8.2 kmh 29.99 in1015.6 mb 0.00 in0.0 mm 0.00 in0.0 mm 0.00 in0.0 mm
03:15 AM 76.7°F24.8°C 76.8°F24.9°C 100% Calm Calm 3.6 mph5.8 kmh 29.99 in1015.6 mb 0.00 in0.0 mm 0.00 in0.0 mm 0.00 in0.0 mm
03:00 AM 76.7°F24.8°C 76.8°F24.9°C 100% 1.8 mph SSE2.9 kmh SSE 5.1 mph8.2 kmh 29.99 in1015.6 mb 0.00 in0.0 mm 0.00 in0.0 mm 0.00 in0.0 mm
02:45 AM 76.9°F24.9°C 77.0°F25.0°C 100% Calm Calm 5.1 mph8.2 kmh 29.99 in1015.6 mb 0.00 in0.0 mm 0.00 in0.0 mm 0.00 in0.0 mm
02:30 AM 76.5°F24.7°C 76.6°F24.8°C 100% Calm Calm 5.1 mph8.2 kmh 29.99 in1015.6 mb 0.00 in0.0 mm 0.00 in0.0 mm 0.00 in0.0 mm
02:15 AM 76.4°F24.7°C 76.4°F24.7°C 100% Calm Calm 5.1 mph8.2 kmh 30.00 in1015.9 mb 0.00 in0.0 mm 0.00 in0.0 mm 0.00 in0.0 mm
02:00 AM 76.4°F24.7°C 76.4°F24.7°C 100% Calm Calm 5.1 mph8.2 kmh 30.00 in1015.9 mb 0.00 in0.0 mm 0.00 in0.0 mm 0.00 in0.0 mm
01:45 AM 76.5°F24.7°C 76.6°F24.8°C 100% Calm Calm 5.1 mph8.2 kmh 30.00 in1015.9 mb 0.00 in0.0 mm 0.00 in0.0 mm 0.00 in0.0 mm
01:30 AM 76.7°F24.8°C 76.8°F24.9°C 100% 1.8 mph SE2.9 kmh SE 6.9 mph11.1 kmh 30.01 in1016.3 mb 0.00 in0.0 mm 0.00 in0.0 mm 0.00 in0.0 mm
01:15 AM 76.5°F24.7°C 76.6°F24.8°C 100% Calm Calm 10.5 mph16.9 kmh 30.01 in1016.3 mb 0.00 in0.0 mm 0.00 in0.0 mm 0.00 in0.0 mm
01:00 AM 76.4°F24.7°C 76.4°F24.7°C 100% Calm Calm 3.6 mph5.8 kmh 30.01 in1016.3 mb 0.00 in0.0 mm 0.00 in0.0 mm 0.00 in0.0 mm
12:45 AM 76.4°F24.7°C 76.4°F24.7°C 100% Calm Calm 3.6 mph5.8 kmh 30.02 in1016.6 mb 0.00 in0.0 mm 0.00 in0.0 mm 0.00 in0.0 mm
12:30 AM 76.5°F24.7°C 76.6°F24.8°C 100% Calm Calm 1.8 mph2.9 kmh 30.02 in1016.6 mb 0.00 in0.0 mm 0.00 in0.0 mm 0.00 in0.0 mm
12:15 AM 76.7°F24.8°C 76.8°F24.9°C 100% Calm Calm 3.6 mph5.8 kmh 30.01 in1016.3 mb 0.00 in0.0 mm 0.00 in0.0 mm 0.00 in0.0 mm
12:00 AM 76.5°F24.7°C 76.6°F24.8°C 100% Calm Calm 5.1 mph8.2 kmh 30.01 in1016.3 mb 0.00 in0.0 mm 0.00 in0.0 mm 0.00 in0.0 mm